Time,TemperatureF,DewpointF,PressureIn,WindDirection,WindDirectionDegrees,WindSpeedMPH,WindSpeedGustMPH,Humidity,HourlyPrecipIn,Conditions,Clouds,dailyrainin,SolarRadiationWatts/m^2,SoftwareType,DateUTC
2013-07-09 00:05:00,55.2,51.1,29.98,NW,316,0.0,4.0,86,0.00,,,0.00,0,Wunderground v.1.15,2013-07-09 07:05:00,
2013-07-09 00:11:00,55.0,50.9,29.98,NW,316,0.0,4.0,86,0.00,,,0.00,0,Wunderground v.1.15,2013-07-09 07:11:00,
2013-07-09 00:16:00,54.8,51.0,29.98,NW,316,0.0,4.0,87,0.00,,,0.00,0,Wunderground v.1.15,2013-07-09 07:16:00,
2013-07-09 00:22:00,54.7,50.9,29.98,NW,316,0.0,4.0,87,0.00,,,0.00,0,Wunderground v.1.15,2013-07-09 07:22:00,
2013-07-09 00:27:00,54.5,50.7,29.98,NW,316,0.0,4.0,87,0.00,,,0.00,0,Wunderground v.1.15,2013-07-09 07:27:00,
2013-07-09 00:33:00,54.5,51.0,29.98,NW,316,0.0,4.0,88,0.00,,,0.00,0,Wunderground v.1.15,2013-07-09 07:33:00,
2013-07-09 00:39:00,54.4,50.9,29.98,NW,316,0.0,4.0,88,0.00,,,0.00,0,Wunderground v.1.15,2013-07-09 07:39:00,
2013-07-09 00:44:00,54.2,50.7,29.99,NW,316,1.0,4.0,88,0.00,,,0.00,0,Wunderground v.1.15,2013-07-09 07:44:00,
2013-07-09 00:53:00,54.0,50.5,29.99,NW,316,0.0,4.0,88,0.00,,,0.00,0,Wunderground v.1.15,2013-07-09 07:53:00,
2013-07-09 00:59:00,53.9,50.7,29.98,NW,316,1.0,4.0,89,0.00,,,0.00,0,Wunderground v.1.15,2013-07-09 07:59:00,
2013-07-09 01:05:00,53.7,50.5,29.98,NW,316,0.0,4.0,89,0.00,,,0.00,0,Wunderground v.1.15,2013-07-09 08:05:00,
2013-07-09 01:10:00,53.6,50.4,29.98,NW,316,1.0,1.0,89,0.00,,,0.00,0,Wunderground v.1.15,2013-07-09 08:10:00,
2013-07-09 01:16:00,53.5,50.6,29.98,NW,316,1.0,4.0,90,0.00,,,0.00,0,Wunderground v.1.15,2013-07-09 08:16:00,
2013-07-09 01:21:00,53.5,50.6,29.98,NW,316,2.0,2.0,90,0.00,,,0.00,0,Wunderground v.1.15,2013-07-09 08:21:00,
2013-07-09 01:26:00,53.4,50.5,29.98,NW,317,1.0,4.0,90,0.00,,,0.00,0,Wunderground v.1.15,2013-07-09 08:26:00,
2013-07-09 01:31:00,53.5,50.6,29.98,NW,323,1.0,4.0,90,0.00,,,0.00,0,Wunderground v.1.15,2013-07-09 08:31:00,
2013-07-09 01:37:00,53.5,50.9,29.99,NW,310,1.0,4.0,91,0.00,,,0.00,0,Wunderground v.1.15,2013-07-09 08:37:00,
2013-07-09 01:42:00,53.4,50.8,29.98,NW,313,2.0,4.0,91,0.00,,,0.00,0,Wunderground v.1.15,2013-07-09 08:42:00,
2013-07-09 01:47:00,53.4,50.8,29.98,NW,321,2.0,7.0,91,0.00,,,0.00,0,Wunderground v.1.15,2013-07-09 08:47:00,
2013-07-09 01:53:00,53.2,50.6,29.99,NW,317,3.0,4.0,91,0.00,,,0.00,0,Wunderground v.1.15,2013-07-09 08:53:00,
2013-07-09 01:59:00,53.2,50.6,29.99,NW,316,2.0,4.0,91,0.00,,,0.00,0,Wunderground v.1.15,2013-07-09 08:59:00,
2013-07-09 02:05:00,53.2,50.9,29.99,NW,316,1.0,4.0,92,0.00,,,0.00,0,Wunderground v.1.15,2013-07-09 09:05:00,
2013-07-09 02:11:00,53.2,50.9,29.99,NW,317,0.0,4.0,92,0.00,,,0.00,0,Wunderground v.1.15,2013-07-09 09:11:00,
2013-07-09 02:16:00,53.2,50.9,29.99,NW,317,1.0,4.0,92,0.00,,,0.00,0,Wunderground v.1.15,2013-07-09 09:16:00,
2013-07-09 02:21:00,53.2,50.9,29.99,NW,317,1.0,4.0,92,0.00,,,0.00,0,Wunderground v.1.15,2013-07-09 09:21:00,
2013-07-09 02:27:00,53.2,50.9,29.99,NW,317,0.0,4.0,92,0.00,,,0.00,0,Wunderground v.1.15,2013-07-09 09:27:00,
2013-07-09 02:32:00,53.2,50.9,29.99,NW,317,1.0,4.0,92,0.00,,,0.00,0,Wunderground v.1.15,2013-07-09 09:32:00,
2013-07-09 02:37:00,53.3,51.0,29.99,NW,317,0.0,4.0,92,0.00,,,0.00,0,Wunderground v.1.15,2013-07-09 09:37:00,
2013-07-09 02:43:00,53.3,51.0,29.99,NW,317,0.0,4.0,92,0.00,,,0.00,0,Wunderground v.1.15,2013-07-09 09:43:00,
2013-07-09 02:49:00,53.3,51.0,29.99,NW,315,1.0,4.0,92,0.00,,,0.00,0,Wunderground v.1.15,2013-07-09 09:49:00,
2013-07-09 02:54:00,53.2,50.9,29.99,NW,315,1.0,4.0,92,0.00,,,0.00,0,Wunderground v.1.15,2013-07-09 09:54:00,
2013-07-09 03:00:00,53.2,51.2,29.99,NW,315,1.0,4.0,93,0.00,,,0.00,0,Wunderground v.1.15,2013-07-09 10:00:00,
2013-07-09 03:06:00,53.2,51.2,29.99,NW,315,0.0,4.0,93,0.00,,,0.00,0,Wunderground v.1.15,2013-07-09 10:06:00,
2013-07-09 03:12:00,53.1,51.1,29.99,NW,315,0.0,4.0,93,0.00,,,0.00,0,Wunderground v.1.15,2013-07-09 10:12:00,
2013-07-09 03:17:00,53.1,51.1,29.99,NW,315,0.0,4.0,93,0.00,,,0.00,0,Wunderground v.1.15,2013-07-09 10:17:00,
2013-07-09 03:23:00,53.0,51.0,29.99,NW,315,0.0,4.0,93,0.00,,,0.00,0,Wunderground v.1.15,2013-07-09 10:23:00,
2013-07-09 03:28:00,53.1,51.1,29.99,NW,315,0.0,4.0,93,0.00,,,0.00,0,Wunderground v.1.15,2013-07-09 10:28:00,
2013-07-09 03:33:00,53.1,51.1,29.99,NW,315,0.0,4.0,93,0.00,,,0.00,0,Wunderground v.1.15,2013-07-09 10:33:00,
2013-07-09 03:39:00,53.1,51.1,29.99,NW,315,0.0,4.0,93,0.00,,,0.00,0,Wunderground v.1.15,2013-07-09 10:39:00,
2013-07-09 03:45:00,53.0,51.0,30.00,NW,315,0.0,4.0,93,0.00,,,0.00,0,Wunderground v.1.15,2013-07-09 10:45:00,
2013-07-09 03:51:00,53.0,51.0,30.00,NW,315,1.0,4.0,93,0.00,,,0.00,0,Wunderground v.1.15,2013-07-09 10:51:00,
2013-07-09 03:56:00,52.9,50.9,30.00,NW,315,1.0,4.0,93,0.00,,,0.00,0,Wunderground v.1.15,2013-07-09 10:56:00,
2013-07-09 04:02:00,52.9,50.9,30.00,NW,317,1.0,4.0,93,0.00,,,0.00,0,Wunderground v.1.15,2013-07-09 11:02:00,
2013-07-09 04:07:00,52.8,50.8,30.00,NW,316,2.0,4.0,93,0.00,,,0.00,0,Wunderground v.1.15,2013-07-09 11:07:00,
2013-07-09 04:12:00,52.7,50.7,30.00,NW,315,2.0,5.0,93,0.00,,,0.00,0,Wunderground v.1.15,2013-07-09 11:12:00,
2013-07-09 04:18:00,52.7,50.7,30.00,NW,315,2.0,5.0,93,0.00,,,0.00,0,Wunderground v.1.15,2013-07-09 11:18:00,
2013-07-09 04:23:00,52.6,50.6,30.00,NW,316,1.0,4.0,93,0.00,,,0.00,0,Wunderground v.1.15,2013-07-09 11:23:00,
2013-07-09 04:28:00,52.6,50.6,30.00,NW,316,1.0,4.0,93,0.00,,,0.00,0,Wunderground v.1.15,2013-07-09 11:28:00,
2013-07-09 04:33:00,52.6,50.6,30.00,NW,316,1.0,4.0,93,0.00,,,0.00,0,Wunderground v.1.15,2013-07-09 11:33:00,
2013-07-09 04:39:00,52.6,50.6,30.00,NW,313,1.0,4.0,93,0.00,,,0.00,0,Wunderground v.1.15,2013-07-09 11:39:00,
2013-07-09 04:44:00,52.5,50.5,30.00,NW,313,1.0,4.0,93,0.00,,,0.00,0,Wunderground v.1.15,2013-07-09 11:44:00,
2013-07-09 04:50:00,52.5,50.5,30.00,NW,313,1.0,4.0,93,0.00,,,0.00,0,Wunderground v.1.15,2013-07-09 11:50:00,
2013-07-09 04:56:00,52.5,50.5,30.00,NW,313,1.0,4.0,93,0.00,,,0.00,0,Wunderground v.1.15,2013-07-09 11:56:00,
2013-07-09 05:02:00,52.5,50.5,30.00,NW,313,1.0,4.0,93,0.00,,,0.00,0,Wunderground v.1.15,2013-07-09 12:02:00,
2013-07-09 05:08:00,52.4,50.4,30.00,NW,311,1.0,4.0,93,0.00,,,0.00,0,Wunderground v.1.15,2013-07-09 12:08:00,
2013-07-09 05:14:00,52.3,50.6,30.00,NW,305,2.0,7.0,94,0.00,,,0.00,0,Wunderground v.1.15,2013-07-09 12:14:00,
2013-07-09 05:19:00,52.2,50.5,30.01,NW,309,2.0,7.0,94,0.00,,,0.00,0,Wunderground v.1.15,2013-07-09 12:19:00,
2013-07-09 05:25:00,52.2,50.5,30.01,NW,306,2.0,5.0,94,0.00,,,0.00,0,Wunderground v.1.15,2013-07-09 12:25:00,
2013-07-09 05:31:00,52.1,50.4,30.01,NW,308,2.0,4.0,94,0.00,,,0.00,0,Wunderground v.1.15,2013-07-09 12:31:00,
2013-07-09 05:37:00,52.1,50.4,30.01,NW,308,1.0,4.0,94,0.00,,,0.00,0,Wunderground v.1.15,2013-07-09 12:37:00,
2013-07-09 05:42:00,52.1,50.4,30.02,NW,308,1.0,4.0,94,0.00,,,0.00,0,Wunderground v.1.15,2013-07-09 12:42:00,
2013-07-09 05:48:00,52.1,50.4,30.02,NW,308,1.0,4.0,94,0.00,,,0.00,0,Wunderground v.1.15,2013-07-09 12:48:00,
2013-07-09 05:54:00,52.1,50.4,30.02,NW,308,1.0,5.0,94,0.00,,,0.00,0,Wunderground v.1.15,2013-07-09 12:54:00,
2013-07-09 05:59:00,52.0,50.3,30.02,NW,308,1.0,5.0,94,0.00,,,0.00,0,Wunderground v.1.15,2013-07-09 12:59:00,
2013-07-09 06:04:00,51.9,50.2,30.02,NW,308,0.0,4.0,94,0.00,,,0.00,0,Wunderground v.1.15,2013-07-09 13:04:00,
2013-07-09 06:10:00,51.9,50.2,30.02,NW,308,0.0,4.0,94,0.00,,,0.00,5,Wunderground v.1.15,2013-07-09 13:10:00,
2013-07-09 06:16:00,51.9,50.2,30.02,NW,308,0.0,4.0,94,0.00,,,0.00,7,Wunderground v.1.15,2013-07-09 13:16:00,
2013-07-09 06:22:00,52.0,50.3,30.02,NW,308,0.0,4.0,94,0.00,,,0.00,9,Wunderground v.1.15,2013-07-09 13:22:00,
2013-07-09 06:28:00,52.0,50.3,30.02,NW,308,0.0,4.0,94,0.00,,,0.00,11,Wunderground v.1.15,2013-07-09 13:28:00,
2013-07-09 06:33:00,51.9,50.2,30.02,NW,308,1.0,4.0,94,0.00,,,0.00,16,Wunderground v.1.15,2013-07-09 13:33:00,
2013-07-09 06:38:00,51.8,50.1,30.02,NW,308,1.0,4.0,94,0.00,,,0.00,33,Wunderground v.1.15,2013-07-09 13:38:00,
2013-07-09 06:39:00,51.8,50.1,30.02,NW,308,1.0,4.0,94,0.00,,,0.00,33,Wunderground v.1.15,2013-07-09 13:39:00,
2013-07-09 06:44:00,51.7,50.0,30.03,NW,310,2.0,5.0,94,0.00,,,0.00,32,Wunderground v.1.15,2013-07-09 13:44:00,
2013-07-09 06:50:00,51.7,50.0,30.02,NW,308,3.0,4.0,94,0.00,,,0.00,39,Wunderground v.1.15,2013-07-09 13:50:00,
2013-07-09 06:56:00,51.6,49.9,30.02,NW,308,2.0,4.0,94,0.00,,,0.00,53,Wunderground v.1.15,2013-07-09 13:56:00,
2013-07-09 07:01:00,51.7,50.0,30.02,NW,309,1.0,4.0,94,0.00,,,0.00,72,Wunderground v.1.15,2013-07-09 14:01:00,
2013-07-09 07:07:00,51.8,50.1,30.02,NW,309,1.0,4.0,94,0.00,,,0.00,84,Wunderground v.1.15,2013-07-09 14:07:00,
2013-07-09 07:13:00,51.9,50.2,30.02,NW,309,1.0,4.0,94,0.00,,,0.00,104,Wunderground v.1.15,2013-07-09 14:13:00,
2013-07-09 07:19:00,52.1,50.4,30.02,NW,310,0.0,4.0,94,0.00,,,0.00,123,Wunderground v.1.15,2013-07-09 14:19:00,
2013-07-09 07:24:00,52.3,50.6,30.03,NW,310,0.0,4.0,94,0.00,,,0.00,118,Wunderground v.1.15,2013-07-09 14:24:00,
2013-07-09 07:29:00,52.4,51.0,30.03,NW,310,0.0,4.0,95,0.00,,,0.00,211,Wunderground v.1.15,2013-07-09 14:29:00,
2013-07-09 07:35:00,52.7,51.3,30.03,NW,310,1.0,4.0,95,0.00,,,0.00,311,Wunderground v.1.15,2013-07-09 14:35:00,
2013-07-09 07:41:00,53.1,51.7,30.02,NW,306,1.0,4.0,95,0.00,,,0.00,290,Wunderground v.1.15,2013-07-09 14:41:00,
2013-07-09 07:46:00,53.3,51.9,30.02,NW,311,1.0,5.0,95,0.00,,,0.00,278,Wunderground v.1.15,2013-07-09 14:46:00,
2013-07-09 07:51:00,53.6,52.2,30.03,West,275,1.0,4.0,95,0.00,,,0.00,290,Wunderground v.1.15,2013-07-09 14:51:00,
2013-07-09 07:57:00,53.9,52.5,30.03,NW,306,1.0,4.0,95,0.00,,,0.00,311,Wunderground v.1.15,2013-07-09 14:57:00,
2013-07-09 08:02:00,54.2,52.8,30.03,NW,306,1.0,4.0,95,0.00,,,0.00,329,Wunderground v.1.15,2013-07-09 15:02:00,
2013-07-09 08:07:00,54.5,52.8,30.03,NW,311,1.0,4.0,94,0.00,,,0.00,345,Wunderground v.1.15,2013-07-09 15:07:00,
2013-07-09 08:13:00,55.0,53.6,30.03,NW,311,1.0,4.0,95,0.00,,,0.00,364,Wunderground v.1.15,2013-07-09 15:13:00,
2013-07-09 08:19:00,55.3,53.6,30.03,NW,311,0.0,4.0,94,0.00,,,0.00,381,Wunderground v.1.15,2013-07-09 15:19:00,
2013-07-09 08:24:00,55.7,54.0,30.03,NW,311,0.0,5.0,94,0.00,,,0.00,397,Wunderground v.1.15,2013-07-09 15:24:00,
2013-07-09 08:30:00,56.1,54.1,30.03,NW,312,0.0,4.0,93,0.00,,,0.00,418,Wunderground v.1.15,2013-07-09 15:30:00,
2013-07-09 08:36:00,56.7,54.4,30.03,NW,307,1.0,4.0,92,0.00,,,0.00,438,Wunderground v.1.15,2013-07-09 15:36:00,
2013-07-09 08:42:00,57.5,54.6,30.03,WNW,290,1.0,4.0,90,0.00,,,0.00,459,Wunderground v.1.15,2013-07-09 15:42:00,
2013-07-09 08:48:00,58.2,54.3,30.03,NW,316,1.0,4.0,87,0.00,,,0.00,475,Wunderground v.1.15,2013-07-09 15:48:00,
2013-07-09 08:53:00,58.7,54.5,30.03,NW,321,2.0,4.0,86,0.00,,,0.00,490,Wunderground v.1.15,2013-07-09 15:53:00,
2013-07-09 08:58:00,59.7,54.9,30.03,NW,315,1.0,4.0,84,0.00,,,0.00,504,Wunderground v.1.15,2013-07-09 15:58:00,
2013-07-09 09:04:00,60.7,54.8,30.03,NW,320,1.0,4.0,81,0.00,,,0.00,526,Wunderground v.1.15,2013-07-09 16:04:00,
2013-07-09 09:10:00,61.4,55.2,30.03,NW,311,2.0,2.0,80,0.00,,,0.00,541,Wunderground v.1.15,2013-07-09 16:10:00,
2013-07-09 09:16:00,62.2,55.3,30.03,NW,311,1.0,4.0,78,0.00,,,0.00,561,Wunderground v.1.15,2013-07-09 16:16:00,
2013-07-09 09:21:00,63.0,55.7,30.03,NW,309,1.0,4.0,77,0.00,,,0.00,575,Wunderground v.1.15,2013-07-09 16:21:00,
2013-07-09 09:26:00,63.6,55.5,30.03,NW,306,1.0,4.0,75,0.00,,,0.00,591,Wunderground v.1.15,2013-07-09 16:26:00,
2013-07-09 09:32:00,64.2,55.7,30.03,NNW,330,1.0,4.0,74,0.00,,,0.00,608,Wunderground v.1.15,2013-07-09 16:32:00,
2013-07-09 09:37:00,64.7,55.5,30.03,NNW,344,1.0,4.0,72,0.00,,,0.00,622,Wunderground v.1.15,2013-07-09 16:37:00,
2013-07-09 09:43:00,65.4,55.7,30.02,NNW,332,2.0,4.0,71,0.00,,,0.00,640,Wunderground v.1.15,2013-07-09 16:43:00,
2013-07-09 09:49:00,66.2,56.1,30.02,NW,318,1.0,4.0,70,0.00,,,0.00,656,Wunderground v.1.15,2013-07-09 16:49:00,
2013-07-09 09:55:00,67.0,56.1,30.02,WNW,298,1.0,4.0,68,0.00,,,0.00,673,Wunderground v.1.15,2013-07-09 16:55:00,
2013-07-09 10:01:00,67.9,56.5,30.02,West,281,1.0,4.0,67,0.00,,,0.00,689,Wunderground v.1.15,2013-07-09 17:01:00,
2013-07-09 10:06:00,68.6,56.4,30.03,WNW,288,1.0,4.0,65,0.00,,,0.00,705,Wunderground v.1.15,2013-07-09 17:06:00,
2013-07-09 10:11:00,69.0,55.9,30.03,West,265,1.0,4.0,63,0.00,,,0.00,717,Wunderground v.1.15,2013-07-09 17:11:00,
2013-07-09 10:17:00,69.5,55.0,30.03,NNW,329,1.0,4.0,60,0.00,,,0.00,731,Wunderground v.1.15,2013-07-09 17:17:00,
2013-07-09 10:22:00,70.3,56.2,30.02,NW,319,1.0,4.0,61,0.00,,,0.00,744,Wunderground v.1.15,2013-07-09 17:22:00,
2013-07-09 10:28:00,71.2,54.2,30.03,NNW,328,1.0,4.0,55,0.00,,,0.00,758,Wunderground v.1.15,2013-07-09 17:28:00,
2013-07-09 10:34:00,72.4,54.8,30.02,NNW,346,1.0,4.0,54,0.00,,,0.00,770,Wunderground v.1.15,2013-07-09 17:34:00,
2013-07-09 10:39:00,73.0,55.4,30.02,WSW,243,1.0,4.0,54,0.00,,,0.00,782,Wunderground v.1.15,2013-07-09 17:39:00,
2013-07-09 10:44:00,74.0,56.3,30.02,West,279,1.0,4.0,54,0.00,,,0.00,795,Wunderground v.1.15,2013-07-09 17:44:00,
2013-07-09 10:50:00,74.4,55.1,30.02,NW,318,1.0,1.0,51,0.00,,,0.00,807,Wunderground v.1.15,2013-07-09 17:50:00,
2013-07-09 10:56:00,75.3,55.9,30.02,NW,320,1.0,4.0,51,0.00,,,0.00,821,Wunderground v.1.15,2013-07-09 17:56:00,
2013-07-09 11:02:00,76.3,55.7,30.02,NW,310,0.0,4.0,49,0.00,,,0.00,833,Wunderground v.1.15,2013-07-09 18:02:00,
2013-07-09 11:08:00,76.7,56.1,30.02,WNW,285,1.0,4.0,49,0.00,,,0.00,846,Wunderground v.1.15,2013-07-09 18:08:00,
2013-07-09 11:14:00,77.5,55.1,30.02,WNW,293,1.0,4.0,46,0.00,,,0.00,858,Wunderground v.1.15,2013-07-09 18:14:00,
2013-07-09 11:20:00,78.1,55.6,30.02,WNW,302,1.0,1.0,46,0.00,,,0.00,872,Wunderground v.1.15,2013-07-09 18:20:00,
2013-07-09 11:26:00,79.7,57.1,30.02,WNW,302,0.0,4.0,46,0.00,,,0.00,875,Wunderground v.1.15,2013-07-09 18:26:00,
2013-07-09 11:31:00,80.4,57.1,30.02,WNW,296,1.0,4.0,45,0.00,,,0.00,886,Wunderground v.1.15,2013-07-09 18:31:00,
2013-07-09 11:36:00,80.8,58.7,30.01,WNW,300,1.0,4.0,47,0.00,,,0.00,895,Wunderground v.1.15,2013-07-09 18:36:00,
2013-07-09 11:41:00,81.8,59.0,30.01,WNW,296,1.0,4.0,46,0.00,,,0.00,902,Wunderground v.1.15,2013-07-09 18:41:00,
2013-07-09 11:47:00,82.4,57.7,30.01,WNW,296,1.0,4.0,43,0.00,,,0.00,909,Wunderground v.1.15,2013-07-09 18:47:00,
2013-07-09 11:52:00,82.6,58.5,30.01,NW,313,1.0,4.0,44,0.00,,,0.00,916,Wunderground v.1.15,2013-07-09 18:52:00,
2013-07-09 11:58:00,82.8,59.3,30.01,West,265,1.0,4.0,45,0.00,,,0.00,923,Wunderground v.1.15,2013-07-09 18:58:00,
2013-07-09 12:04:00,83.9,59.0,30.01,NNW,333,1.0,4.0,43,0.00,,,0.00,930,Wunderground v.1.15,2013-07-09 19:04:00,
2013-07-09 12:09:00,84.3,59.4,30.01,West,279,1.0,4.0,43,0.00,,,0.00,937,Wunderground v.1.15,2013-07-09 19:09:00,
2013-07-09 12:15:00,84.5,58.9,30.01,NNW,327,2.0,4.0,42,0.00,,,0.00,942,Wunderground v.1.15,2013-07-09 19:15:00,
2013-07-09 12:20:00,84.3,59.4,30.01,West,281,2.0,2.0,43,0.00,,,0.00,949,Wunderground v.1.15,2013-07-09 19:20:00,
2013-07-09 12:25:00,85.0,60.0,30.01,WSW,238,1.0,5.0,43,0.00,,,0.00,953,Wunderground v.1.15,2013-07-09 19:25:00,
2013-07-09 12:31:00,85.9,59.5,30.01,West,263,1.0,4.0,41,0.00,,,0.00,956,Wunderground v.1.15,2013-07-09 19:31:00,
2013-07-09 12:36:00,86.1,59.0,30.01,West,265,1.0,4.0,40,0.00,,,0.00,960,Wunderground v.1.15,2013-07-09 19:36:00,
2013-07-09 12:41:00,87.0,60.5,30.00,West,268,1.0,4.0,41,0.00,,,0.00,962,Wunderground v.1.15,2013-07-09 19:41:00,
2013-07-09 12:47:00,88.2,60.1,30.01,WNW,289,1.0,4.0,39,0.00,,,0.00,967,Wunderground v.1.15,2013-07-09 19:47:00,
2013-07-09 12:53:00,88.0,59.9,30.00,NW,307,2.0,5.0,39,0.00,,,0.00,965,Wunderground v.1.15,2013-07-09 19:53:00,
2013-07-09 12:58:00,88.5,60.4,30.00,West,269,2.0,5.0,39,0.00,,,0.00,970,Wunderground v.1.15,2013-07-09 19:58:00,
2013-07-09 13:04:00,89.3,59.6,30.00,NNW,346,1.0,4.0,37,0.00,,,0.00,967,Wunderground v.1.15,2013-07-09 20:04:00,
2013-07-09 13:10:00,89.8,60.1,30.00,West,275,1.0,1.0,37,0.00,,,0.00,972,Wunderground v.1.15,2013-07-09 20:10:00,
2013-07-09 13:16:00,90.2,59.6,30.00,NNW,338,1.0,4.0,36,0.00,,,0.00,969,Wunderground v.1.15,2013-07-09 20:16:00,
2013-07-09 13:21:00,90.1,59.5,30.00,NNW,338,2.0,2.0,36,0.00,,,0.00,972,Wunderground v.1.15,2013-07-09 20:21:00,
2013-07-09 13:27:00,90.4,59.0,30.00,WSW,246,2.0,6.0,35,0.00,,,0.00,970,Wunderground v.1.15,2013-07-09 20:27:00,
2013-07-09 13:33:00,90.0,59.5,30.00,WSW,240,3.0,8.0,36,0.00,,,0.00,967,Wunderground v.1.15,2013-07-09 20:33:00,
2013-07-09 13:39:00,90.5,59.9,29.99,West,281,2.0,8.0,36,0.00,,,0.00,963,Wunderground v.1.15,2013-07-09 20:39:00,
2013-07-09 13:44:00,90.9,60.3,30.00,WNW,299,2.0,6.0,36,0.00,,,0.00,963,Wunderground v.1.15,2013-07-09 20:44:00,
2013-07-09 13:50:00,90.7,60.1,30.00,NNW,341,3.0,4.0,36,0.00,,,0.00,960,Wunderground v.1.15,2013-07-09 20:50:00,
2013-07-09 13:56:00,90.7,60.1,29.99,NW,322,3.0,6.0,36,0.00,,,0.00,953,Wunderground v.1.15,2013-07-09 20:56:00,
2013-07-09 14:01:00,90.9,61.0,29.99,West,265,3.0,4.0,37,0.00,,,0.00,951,Wunderground v.1.15,2013-07-09 21:01:00,
2013-07-09 14:06:00,91.5,60.0,29.99,NNW,329,3.0,4.0,35,0.00,,,0.00,949,Wunderground v.1.15,2013-07-09 21:06:00,
2013-07-09 14:11:00,91.3,59.8,29.99,NW,308,3.0,4.0,35,0.00,,,0.00,944,Wunderground v.1.15,2013-07-09 21:11:00,
2013-07-09 14:17:00,91.8,60.3,29.99,NNW,341,3.0,5.0,35,0.00,,,0.00,939,Wunderground v.1.15,2013-07-09 21:17:00,
2013-07-09 14:23:00,92.2,59.8,29.99,WNW,296,2.0,4.0,34,0.00,,,0.00,932,Wunderground v.1.15,2013-07-09 21:23:00,
2013-07-09 14:28:00,92.4,60.0,29.99,NNW,334,2.0,4.0,34,0.00,,,0.00,928,Wunderground v.1.15,2013-07-09 21:28:00,
2013-07-09 14:33:00,92.4,60.0,29.99,NW,306,2.0,5.0,34,0.00,,,0.00,925,Wunderground v.1.15,2013-07-09 21:33:00,
2013-07-09 14:38:00,92.7,60.2,29.98,NW,315,2.0,5.0,34,0.00,,,0.00,921,Wunderground v.1.15,2013-07-09 21:38:00,
2013-07-09 14:44:00,92.9,60.4,29.98,NNW,331,3.0,7.0,34,0.00,,,0.00,912,Wunderground v.1.15,2013-07-09 21:44:00,
2013-07-09 14:50:00,93.3,59.9,29.98,NNW,346,3.0,4.0,33,0.00,,,0.00,905,Wunderground v.1.15,2013-07-09 21:50:00,
2013-07-09 14:56:00,93.3,59.9,29.98,NNW,342,3.0,7.0,33,0.00,,,0.00,895,Wunderground v.1.15,2013-07-09 21:56:00,
2013-07-09 15:02:00,93.2,59.8,29.98,NNW,335,3.0,7.0,33,0.00,,,0.00,888,Wunderground v.1.15,2013-07-09 22:02:00,
2013-07-09 15:07:00,93.5,60.1,29.98,NNW,337,2.0,7.0,33,0.00,,,0.00,882,Wunderground v.1.15,2013-07-09 22:07:00,
2013-07-09 15:12:00,93.9,59.6,29.98,WSW,257,2.0,4.0,32,0.00,,,0.00,874,Wunderground v.1.15,2013-07-09 22:12:00,
2013-07-09 15:18:00,93.9,59.6,29.98,NW,319,3.0,5.0,32,0.00,,,0.00,865,Wunderground v.1.15,2013-07-09 22:18:00,
2013-07-09 15:24:00,93.8,59.5,29.97,WNW,300,3.0,4.0,32,0.00,,,0.00,854,Wunderground v.1.15,2013-07-09 22:24:00,
2013-07-09 15:29:00,93.7,59.4,29.98,West,261,3.0,6.0,32,0.00,,,0.00,842,Wunderground v.1.15,2013-07-09 22:29:00,
2013-07-09 15:35:00,93.4,60.0,29.98,NW,323,3.0,5.0,33,0.00,,,0.00,831,Wunderground v.1.15,2013-07-09 22:35:00,
2013-07-09 15:40:00,93.7,59.4,29.97,NW,306,3.0,3.0,32,0.00,,,0.00,819,Wunderground v.1.15,2013-07-09 22:40:00,
2013-07-09 15:45:00,93.7,58.5,29.97,NNW,331,3.0,4.0,31,0.00,,,0.00,809,Wunderground v.1.15,2013-07-09 22:45:00,
2013-07-09 15:51:00,93.6,59.3,29.97,NW,304,3.0,4.0,32,0.00,,,0.00,796,Wunderground v.1.15,2013-07-09 22:51:00,
2013-07-09 15:57:00,93.7,58.5,29.97,NW,323,3.0,5.0,31,0.00,,,0.00,786,Wunderground v.1.15,2013-07-09 22:57:00,
2013-07-09 16:02:00,93.5,58.3,29.97,North,351,4.0,6.0,31,0.00,,,0.00,768,Wunderground v.1.15,2013-07-09 23:02:00,
2013-07-09 16:07:00,93.3,57.2,29.96,NW,306,4.0,7.0,30,0.00,,,0.00,758,Wunderground v.1.15,2013-07-09 23:07:00,
2013-07-09 16:13:00,93.4,57.3,29.96,NW,315,4.0,4.0,30,0.00,,,0.00,749,Wunderground v.1.15,2013-07-09 23:13:00,
2013-07-09 16:19:00,93.6,56.6,29.96,WNW,285,3.0,7.0,29,0.00,,,0.00,735,Wunderground v.1.15,2013-07-09 23:19:00,
2013-07-09 16:24:00,93.4,56.4,29.96,NNW,336,4.0,6.0,29,0.00,,,0.00,719,Wunderground v.1.15,2013-07-09 23:24:00,
2013-07-09 16:30:00,93.3,55.3,29.95,NNW,331,4.0,4.0,28,0.00,,,0.00,707,Wunderground v.1.15,2013-07-09 23:30:00,
2013-07-09 16:35:00,92.9,56.0,29.95,NW,322,4.0,9.0,29,0.00,,,0.00,694,Wunderground v.1.15,2013-07-09 23:35:00,
2013-07-09 16:41:00,92.5,55.6,29.95,NW,325,5.0,9.0,29,0.00,,,0.00,680,Wunderground v.1.15,2013-07-09 23:41:00,
2013-07-09 16:47:00,92.8,55.9,29.95,NNW,343,3.0,9.0,29,0.00,,,0.00,666,Wunderground v.1.15,2013-07-09 23:47:00,
2013-07-09 16:52:00,92.8,55.9,29.95,NNW,334,3.0,4.0,29,0.00,,,0.00,652,Wunderground v.1.15,2013-07-09 23:52:00,
2013-07-09 16:58:00,92.9,56.9,29.95,West,279,3.0,9.0,30,0.00,,,0.00,636,Wunderground v.1.15,2013-07-09 23:58:00,
2013-07-09 17:04:00,92.8,55.9,29.95,NW,317,3.0,9.0,29,0.00,,,0.00,621,Wunderground v.1.15,2013-07-10 00:04:00,
2013-07-09 17:09:00,92.5,55.6,29.95,NW,313,4.0,9.0,29,0.00,,,0.00,605,Wunderground v.1.15,2013-07-10 00:09:00,
2013-07-09 17:14:00,92.1,55.3,29.95,NW,319,4.0,9.0,29,0.00,,,0.00,591,Wunderground v.1.15,2013-07-10 00:14:00,
2013-07-09 17:20:00,91.9,54.1,29.94,NW,304,3.0,3.0,28,0.00,,,0.00,570,Wunderground v.1.15,2013-07-10 00:20:00,
2013-07-09 17:26:00,91.7,54.0,29.94,NW,315,3.0,8.0,28,0.00,,,0.00,554,Wunderground v.1.15,2013-07-10 00:26:00,
2013-07-09 17:32:00,91.4,52.7,29.94,NNW,328,4.0,7.0,27,0.00,,,0.00,534,Wunderground v.1.15,2013-07-10 00:32:00,
2013-07-09 17:38:00,91.0,53.4,29.94,WSW,249,4.0,7.0,28,0.00,,,0.00,519,Wunderground v.1.15,2013-07-10 00:38:00,
2013-07-09 17:43:00,90.8,54.2,29.94,NNW,329,4.0,6.0,29,0.00,,,0.00,504,Wunderground v.1.15,2013-07-10 00:43:00,
2013-07-09 17:48:00,90.3,53.7,29.94,NNW,342,4.0,9.0,29,0.00,,,0.00,487,Wunderground v.1.15,2013-07-10 00:48:00,
2013-07-09 17:53:00,89.9,53.4,29.94,NNW,337,4.0,7.0,29,0.00,,,0.00,469,Wunderground v.1.15,2013-07-10 00:53:00,
2013-07-09 17:58:00,89.3,53.8,29.94,NW,315,4.0,7.0,30,0.00,,,0.00,457,Wunderground v.1.15,2013-07-10 00:58:00,
2013-07-09 18:04:00,88.8,53.4,29.94,NW,319,4.0,5.0,30,0.00,,,0.00,434,Wunderground v.1.15,2013-07-10 01:04:00,
2013-07-09 18:09:00,88.5,53.1,29.94,WNW,285,3.0,7.0,30,0.00,,,0.00,420,Wunderground v.1.15,2013-07-10 01:09:00,
2013-07-09 18:15:00,88.4,53.0,29.93,NW,323,3.0,4.0,30,0.00,,,0.00,401,Wunderground v.1.15,2013-07-10 01:15:00,
2013-07-09 18:21:00,88.2,51.9,29.94,NNW,342,3.0,8.0,29,0.00,,,0.00,381,Wunderground v.1.15,2013-07-10 01:21:00,
2013-07-09 18:26:00,88.0,52.7,29.93,West,269,3.0,8.0,30,0.00,,,0.00,367,Wunderground v.1.15,2013-07-10 01:26:00,
2013-07-09 18:32:00,87.6,53.2,29.93,NNW,334,3.0,10.0,31,0.00,,,0.00,346,Wunderground v.1.15,2013-07-10 01:32:00,
2013-07-09 18:37:00,87.2,53.7,29.93,NW,325,3.0,10.0,32,0.00,,,0.00,329,Wunderground v.1.15,2013-07-10 01:37:00,
2013-07-09 18:42:00,86.8,53.4,29.93,NNW,331,3.0,5.0,32,0.00,,,0.00,313,Wunderground v.1.15,2013-07-10 01:42:00,
2013-07-09 18:47:00,86.4,53.9,29.93,NNW,340,3.0,5.0,33,0.00,,,0.00,295,Wunderground v.1.15,2013-07-10 01:47:00,
2013-07-09 18:53:00,86.0,54.4,29.93,North,350,3.0,6.0,34,0.00,,,0.00,276,Wunderground v.1.15,2013-07-10 01:53:00,
2013-07-09 18:58:00,85.7,54.1,29.93,NW,325,3.0,6.0,34,0.00,,,0.00,255,Wunderground v.1.15,2013-07-10 01:58:00,
2013-07-09 19:03:00,85.5,53.9,29.93,NW,316,2.0,4.0,34,0.00,,,0.00,243,Wunderground v.1.15,2013-07-10 02:03:00,
2013-07-09 19:09:00,85.3,53.8,29.93,NW,308,2.0,5.0,34,0.00,,,0.00,209,Wunderground v.1.15,2013-07-10 02:09:00,
2013-07-09 19:15:00,84.8,53.3,29.93,NW,309,3.0,4.0,34,0.00,,,0.00,193,Wunderground v.1.15,2013-07-10 02:15:00,
2013-07-09 19:21:00,84.4,53.0,29.93,NW,306,3.0,4.0,34,0.00,,,0.00,171,Wunderground v.1.15,2013-07-10 02:21:00,
2013-07-09 19:27:00,84.1,51.9,29.93,NW,323,3.0,5.0,33,0.00,,,0.00,148,Wunderground v.1.15,2013-07-10 02:27:00,
2013-07-09 19:33:00,84.1,51.9,29.93,NW,314,1.0,4.0,33,0.00,,,0.00,127,Wunderground v.1.15,2013-07-10 02:33:00,
2013-07-09 19:39:00,84.0,51.0,29.93,NW,317,1.0,4.0,32,0.00,,,0.00,105,Wunderground v.1.15,2013-07-10 02:39:00,
2013-07-09 19:45:00,84.0,51.0,29.93,NW,317,0.0,4.0,32,0.00,,,0.00,76,Wunderground v.1.15,2013-07-10 02:45:00,
2013-07-09 19:51:00,83.8,50.8,29.93,NW,317,0.0,4.0,32,0.00,,,0.00,26,Wunderground v.1.15,2013-07-10 02:51:00,
2013-07-09 19:56:00,83.6,50.6,29.93,NW,317,0.0,4.0,32,0.00,,,0.00,19,Wunderground v.1.15,2013-07-10 02:56:00,
2013-07-09 20:02:00,83.2,51.1,29.93,NW,317,0.0,4.0,33,0.00,,,0.00,18,Wunderground v.1.15,2013-07-10 03:02:00,
2013-07-09 20:05:00,83.0,51.7,29.93,NW,317,0.0,4.0,34,0.00,,,0.00,18,Wunderground v.1.15,2013-07-10 03:05:00,
2013-07-09 20:11:00,82.8,52.3,29.93,NW,317,0.0,4.0,35,0.00,,,0.00,16,Wunderground v.1.15,2013-07-10 03:11:00,
2013-07-09 20:17:00,82.5,52.9,29.93,NW,317,0.0,4.0,36,0.00,,,0.00,12,Wunderground v.1.15,2013-07-10 03:17:00,
2013-07-09 20:23:00,81.9,53.8,29.94,NW,317,0.0,4.0,38,0.00,,,0.00,11,Wunderground v.1.15,2013-07-10 03:23:00,
2013-07-09 20:28:00,81.4,54.1,29.93,NW,317,0.0,4.0,39,0.00,,,0.00,7,Wunderground v.1.15,2013-07-10 03:28:00,
2013-07-09 20:34:00,80.8,54.2,29.93,NW,317,0.0,4.0,40,0.00,,,0.00,5,Wunderground v.1.15,2013-07-10 03:34:00,
2013-07-09 20:40:00,80.2,53.7,29.94,NW,317,0.0,4.0,40,0.00,,,0.00,0,Wunderground v.1.15,2013-07-10 03:40:00,
2013-07-09 20:46:00,79.6,53.8,29.94,NW,317,0.0,4.0,41,0.00,,,0.00,0,Wunderground v.1.15,2013-07-10 03:46:00,
2013-07-09 20:51:00,78.9,53.9,29.94,NW,317,0.0,4.0,42,0.00,,,0.00,0,Wunderground v.1.15,2013-07-10 03:51:00,
2013-07-09 20:56:00,78.1,53.8,29.94,NW,317,0.0,4.0,43,0.00,,,0.00,0,Wunderground v.1.15,2013-07-10 03:56:00,
2013-07-09 21:01:00,77.3,53.7,29.93,NW,317,0.0,4.0,44,0.00,,,0.00,0,Wunderground v.1.15,2013-07-10 04:01:00,
2013-07-09 21:02:00,77.2,53.6,29.93,NW,317,0.0,4.0,44,0.00,,,0.00,0,Wunderground v.1.15,2013-07-10 04:02:00,
2013-07-09 21:03:00,76.9,53.3,29.93,NW,317,0.0,4.0,44,0.00,,,0.00,0,Wunderground v.1.15,2013-07-10 04:03:00,
2013-07-09 21:05:00,76.6,53.1,29.94,NW,316,0.0,4.0,44,0.00,,,0.00,0,Wunderground v.1.15,2013-07-10 04:05:00,
2013-07-09 21:10:00,75.9,53.6,29.94,NW,316,0.0,4.0,46,0.00,,,0.00,0,Wunderground v.1.15,2013-07-10 04:10:00,
2013-07-09 21:13:00,75.6,53.9,29.94,NW,316,0.0,4.0,47,0.00,,,0.00,0,Wunderground v.1.15,2013-07-10 04:13:00,
2013-07-09 21:18:00,75.2,53.6,29.94,NW,316,0.0,4.0,47,0.00,,,0.00,0,Wunderground v.1.15,2013-07-10 04:18:00,
2013-07-09 21:23:00,74.7,53.7,29.94,NW,316,0.0,4.0,48,0.00,,,0.00,0,Wunderground v.1.15,2013-07-10 04:23:00,
2013-07-09 21:29:00,74.3,53.3,29.94,NW,316,0.0,4.0,48,0.00,,,0.00,0,Wunderground v.1.15,2013-07-10 04:29:00,
2013-07-09 21:34:00,73.9,53.0,29.94,NW,316,0.0,4.0,48,0.00,,,0.00,0,Wunderground v.1.15,2013-07-10 04:34:00,
2013-07-09 21:39:00,73.5,53.7,29.95,NW,316,0.0,4.0,50,0.00,,,0.00,0,Wunderground v.1.15,2013-07-10 04:39:00,
2013-07-09 21:45:00,72.9,53.7,29.95,NW,316,0.0,4.0,51,0.00,,,0.00,0,Wunderground v.1.15,2013-07-10 04:45:00,
2013-07-09 21:51:00,72.3,53.7,29.95,NW,316,0.0,4.0,52,0.00,,,0.00,0,Wunderground v.1.15,2013-07-10 04:51:00,
2013-07-09 21:56:00,71.9,53.8,29.95,NW,316,0.0,4.0,53,0.00,,,0.00,0,Wunderground v.1.15,2013-07-10 04:56:00,
2013-07-09 22:01:00,71.5,54.0,29.95,NW,316,0.0,4.0,54,0.00,,,0.00,0,Wunderground v.1.15,2013-07-10 05:01:00,
2013-07-09 22:07:00,70.9,53.9,29.96,NW,316,0.0,4.0,55,0.00,,,0.00,0,Wunderground v.1.15,2013-07-10 05:07:00,
2013-07-09 22:13:00,70.3,53.9,29.95,NW,316,0.0,4.0,56,0.00,,,0.00,0,Wunderground v.1.15,2013-07-10 05:13:00,
2013-07-09 22:18:00,69.8,53.9,29.95,NW,316,0.0,4.0,57,0.00,,,0.00,0,Wunderground v.1.15,2013-07-10 05:18:00,
2013-07-09 22:23:00,69.5,53.6,29.95,NW,316,0.0,4.0,57,0.00,,,0.00,0,Wunderground v.1.15,2013-07-10 05:23:00,
2013-07-09 22:29:00,69.0,53.6,29.95,NW,316,0.0,4.0,58,0.00,,,0.00,0,Wunderground v.1.15,2013-07-10 05:29:00,
2013-07-09 22:34:00,68.6,53.7,29.95,NW,316,1.0,4.0,59,0.00,,,0.00,0,Wunderground v.1.15,2013-07-10 05:34:00,
2013-07-09 22:39:00,68.2,53.8,29.95,NW,316,0.0,4.0,60,0.00,,,0.00,0,Wunderground v.1.15,2013-07-10 05:39:00,
2013-07-09 22:44:00,67.9,54.0,29.95,NW,315,0.0,4.0,61,0.00,,,0.00,0,Wunderground v.1.15,2013-07-10 05:44:00,
2013-07-09 22:50:00,67.3,53.8,29.95,NW,314,1.0,4.0,62,0.00,,,0.00,0,Wunderground v.1.15,2013-07-10 05:50:00,
2013-07-09 22:55:00,66.7,53.3,29.96,NW,315,2.0,4.0,62,0.00,,,0.00,0,Wunderground v.1.15,2013-07-10 05:55:00,
2013-07-09 23:00:00,66.0,53.0,29.96,NW,321,3.0,4.0,63,0.00,,,0.00,0,Wunderground v.1.15,2013-07-10 06:00:00,
2013-07-09 23:06:00,65.0,52.5,29.96,NW,325,4.0,9.0,64,0.00,,,0.00,0,Wunderground v.1.15,2013-07-10 06:06:00,
2013-07-09 23:12:00,64.1,52.5,29.96,NW,323,4.0,4.0,66,0.00,,,0.00,0,Wunderground v.1.15,2013-07-10 06:12:00,
2013-07-09 23:17:00,63.6,52.4,29.96,NNW,334,4.0,5.0,67,0.00,,,0.00,0,Wunderground v.1.15,2013-07-10 06:17:00,
2013-07-09 23:22:00,63.2,52.1,29.96,NNW,340,2.0,4.0,67,0.00,,,0.00,0,Wunderground v.1.15,2013-07-10 06:22:00,
2013-07-09 23:27:00,62.9,52.2,29.96,NW,319,1.0,4.0,68,0.00,,,0.00,0,Wunderground v.1.15,2013-07-10 06:27:00,
2013-07-09 23:33:00,62.5,52.2,29.96,NW,319,1.0,4.0,69,0.00,,,0.00,0,Wunderground v.1.15,2013-07-10 06:33:00,
2013-07-09 23:39:00,62.1,51.8,29.97,NW,317,1.0,4.0,69,0.00,,,0.00,0,Wunderground v.1.15,2013-07-10 06:39:00,
2013-07-09 23:45:00,61.5,51.6,29.97,NW,310,2.0,5.0,70,0.00,,,0.00,0,Wunderground v.1.15,2013-07-10 06:45:00,
2013-07-09 23:51:00,61.0,51.5,29.97,NW,321,2.0,4.0,71,0.00,,,0.00,0,Wunderground v.1.15,2013-07-10 06:51:00,
2013-07-09 23:56:00,60.7,51.6,29.97,NW,317,1.0,4.0,72,0.00,,,0.00,0,Wunderground v.1.15,2013-07-10 06:56:00,